Country
Station

 

Weather  for  Goteborg/Landvetter  -  Sweden    Sweden

  
12 °C (54 °F)
    
 
 

Current METAR for Goteborg/Landvetter is :

ESGG 180950Z 32007KT 280V350 CAVOK 12/03 Q1016

 

This is a report for Goteborg/Landvetter - Sweden.
 
The report was made 25 minutes ago, at 09:50 UTC .
The wind was blowing at a speed of 3.6 meters per second (8.1 miles per hour) from northwest (320°), varying between west (280°) and north (350°).
 
The temperature was 12 °C (54 °F), with a dew-point at 3 °C (37 °F).
The atmospheric pressure was 1016 hPa (30.00 inHg).
The relative humidity was 54.0%.
 
There were no clouds below 1500 meter (5000 feet) and no cumulonimbus clouds.
 
The overall visibility was greater than 10 kilometers (6.2 miles).
 

 
 
 
 

Country :   A   B   C   D   E   F   G   H   I   J   K   L   M   N   O   P   Q   R   S   T   U   V   W   Y   Z

 

Site Info  |  Disclaimer  |  Credits  |  Privacy
Contact us  |  Add to favorites
© 2013-2019 METARs - All rights reserved